createdAt,value
2022-08-31T00:00:10.268Z,17.81
2022-08-31T00:02:57.111Z,17.77
2022-08-31T00:05:23.619Z,17.47
2022-08-31T00:07:51.666Z,17.58
2022-08-31T00:10:31.972Z,17.61
2022-08-31T00:13:03.814Z,17.61
2022-08-31T00:15:30.667Z,17.67
2022-08-31T00:17:58.231Z,17.71
2022-08-31T00:20:33.989Z,17.77
2022-08-31T00:23:03.316Z,17.62
2022-08-31T00:25:30.103Z,17.70
2022-08-31T00:27:56.673Z,17.73
2022-08-31T00:30:23.436Z,17.73
2022-08-31T00:32:50.278Z,17.72
2022-08-31T00:35:16.924Z,17.74
2022-08-31T00:37:43.672Z,17.76
2022-08-31T00:40:11.381Z,17.73
2022-08-31T00:42:38.181Z,17.70
2022-08-31T00:45:06.835Z,17.68
2022-08-31T00:47:33.400Z,17.69
2022-08-31T00:50:00.923Z,17.69
2022-08-31T00:52:37.510Z,17.69
2022-08-31T00:55:21.036Z,17.67
2022-08-31T00:57:54.483Z,17.75
2022-08-31T01:00:26.326Z,17.69
2022-08-31T01:02:54.852Z,17.66
2022-08-31T01:05:21.558Z,17.57
2022-08-31T01:07:50.502Z,17.54
2022-08-31T01:10:21.934Z,17.51
2022-08-31T01:12:54.482Z,17.50
2022-08-31T01:15:21.980Z,17.49
2022-08-31T01:17:52.399Z,17.50
2022-08-31T01:20:56.588Z,17.43
2022-08-31T01:23:27.675Z,17.35
2022-08-31T01:25:58.264Z,17.33
2022-08-31T01:28:25.901Z,17.30
2022-08-31T01:31:35.210Z,17.21
2022-08-31T01:34:03.840Z,17.17
2022-08-31T01:36:32.558Z,17.23
2022-08-31T01:38:59.082Z,17.27
2022-08-31T01:41:25.593Z,17.30
2022-08-31T01:43:53.022Z,17.38
2022-08-31T01:46:19.827Z,17.42
2022-08-31T01:48:48.105Z,17.45
2022-08-31T01:51:19.370Z,17.41
2022-08-31T01:53:48.794Z,17.41
2022-08-31T01:56:24.795Z,17.39
2022-08-31T01:58:51.756Z,17.50
2022-08-31T02:01:32.583Z,17.64
2022-08-31T02:04:00.431Z,17.71
2022-08-31T02:06:27.017Z,17.73
2022-08-31T02:08:53.700Z,17.75
2022-08-31T02:11:20.281Z,17.72
2022-08-31T02:13:46.775Z,17.73
2022-08-31T02:16:13.643Z,17.78
2022-08-31T02:18:40.294Z,17.82
2022-08-31T02:21:07.446Z,17.83
2022-08-31T02:23:34.578Z,17.78
2022-08-31T02:26:01.413Z,17.77
2022-08-31T02:28:27.923Z,17.65
2022-08-31T02:30:54.476Z,17.44
2022-08-31T02:33:21.054Z,17.21
2022-08-31T02:35:50.298Z,17.10
2022-08-31T02:38:22.871Z,16.89
2022-08-31T02:40:51.549Z,16.65
2022-08-31T02:43:24.426Z,16.47
2022-08-31T02:45:55.724Z,16.38
2022-08-31T02:48:22.474Z,16.32
2022-08-31T02:50:52.238Z,16.32
2022-08-31T02:53:22.910Z,16.23
2022-08-31T02:55:50.115Z,16.10
2022-08-31T02:58:20.716Z,16.10
2022-08-31T03:00:50.127Z,16.12
2022-08-31T03:03:17.724Z,16.12
2022-08-31T03:05:44.627Z,16.13
2022-08-31T03:08:11.148Z,16.18
2022-08-31T03:10:37.679Z,16.27
2022-08-31T03:13:04.386Z,16.22
2022-08-31T03:15:31.541Z,16.07
2022-08-31T03:17:58.152Z,16.00
2022-08-31T03:20:27.201Z,16.00
2022-08-31T03:22:54.806Z,16.02
2022-08-31T03:25:22.233Z,16.05
2022-08-31T03:27:49.054Z,16.17
2022-08-31T03:30:19.609Z,16.27
2022-08-31T03:32:48.347Z,16.29
2022-08-31T03:35:15.814Z,16.15
2022-08-31T03:37:42.375Z,15.98
2022-08-31T03:40:10.182Z,15.89
2022-08-31T03:42:37.032Z,15.86
2022-08-31T03:45:04.866Z,15.83
2022-08-31T03:47:31.390Z,15.75
2022-08-31T03:49:58.623Z,15.79
2022-08-31T03:52:25.534Z,15.77
2022-08-31T03:54:52.052Z,15.78
2022-08-31T03:57:18.568Z,15.80
2022-08-31T03:59:45.080Z,15.74
2022-08-31T04:02:11.601Z,15.72
2022-08-31T04:04:38.168Z,15.71
2022-08-31T04:07:04.767Z,15.69
2022-08-31T04:09:31.317Z,15.72
2022-08-31T04:11:57.821Z,15.77
2022-08-31T04:14:24.306Z,15.85
2022-08-31T04:16:50.899Z,15.90
2022-08-31T04:19:17.480Z,15.83
2022-08-31T04:21:44.550Z,15.74
2022-08-31T04:24:11.958Z,15.65
2022-08-31T04:26:40.853Z,15.54
2022-08-31T04:29:12.854Z,15.51
2022-08-31T04:31:40.489Z,15.49
2022-08-31T04:34:08.151Z,15.57
2022-08-31T04:36:35.513Z,15.63
2022-08-31T04:39:04.311Z,15.62
2022-08-31T04:41:35.058Z,15.52
2022-08-31T04:44:03.771Z,15.46
2022-08-31T04:46:32.752Z,15.44
2022-08-31T04:48:59.583Z,15.44
2022-08-31T04:51:31.842Z,15.46
2022-08-31T04:53:58.829Z,15.50
2022-08-31T04:56:29.483Z,15.52
2022-08-31T04:59:06.229Z,15.46
2022-08-31T05:01:43.433Z,15.40
2022-08-31T05:04:14.076Z,15.31
2022-08-31T05:06:44.588Z,15.30
2022-08-31T05:09:20.031Z,15.38
2022-08-31T05:11:47.224Z,15.40
2022-08-31T05:14:14.311Z,15.32
2022-08-31T05:16:42.676Z,15.34
2022-08-31T05:19:09.623Z,15.36
2022-08-31T05:21:40.617Z,15.37
2022-08-31T05:24:22.433Z,15.33
2022-08-31T05:26:53.653Z,15.33
2022-08-31T05:29:25.093Z,15.29
2022-08-31T05:31:52.788Z,15.30
2022-08-31T05:34:21.725Z,15.30
2022-08-31T05:36:55.498Z,15.38
2022-08-31T05:39:22.070Z,15.37
2022-08-31T05:41:49.005Z,15.39
2022-08-31T05:44:17.403Z,15.43
2022-08-31T05:46:44.180Z,15.42
2022-08-31T05:49:11.663Z,15.46
2022-08-31T05:51:39.681Z,15.46
2022-08-31T05:54:07.886Z,15.46
2022-08-31T05:56:35.599Z,15.47
2022-08-31T05:59:02.411Z,15.54
2022-08-31T06:01:38.721Z,15.63
2022-08-31T06:04:07.714Z,15.68
2022-08-31T06:06:34.793Z,15.63
2022-08-31T06:09:01.397Z,15.67
2022-08-31T06:11:30.968Z,15.73
2022-08-31T06:14:01.923Z,15.75
2022-08-31T06:16:30.359Z,15.81
2022-08-31T06:18:58.278Z,15.79
2022-08-31T06:21:33.693Z,15.85
2022-08-31T06:24:03.320Z,15.88
2022-08-31T06:26:33.972Z,15.91
2022-08-31T06:29:05.513Z,16.02
2022-08-31T06:31:38.582Z,16.10
2022-08-31T06:34:07.086Z,16.16
2022-08-31T06:36:35.112Z,16.24
2022-08-31T06:39:02.335Z,16.27
2022-08-31T06:41:36.768Z,16.30
2022-08-31T06:44:08.598Z,16.29
2022-08-31T06:46:37.543Z,16.26
2022-08-31T06:49:05.979Z,16.36
2022-08-31T06:51:37.814Z,16.40
2022-08-31T06:54:28.668Z,16.47
2022-08-31T06:56:59.646Z,16.59
2022-08-31T06:59:29.214Z,16.70
2022-08-31T07:02:00.208Z,16.77
2022-08-31T07:04:27.806Z,16.86
2022-08-31T07:06:54.472Z,16.94
2022-08-31T07:09:20.989Z,17.05
2022-08-31T07:11:52.013Z,17.10
2022-08-31T07:14:23.577Z,17.05
2022-08-31T07:16:56.499Z,17.06
2022-08-31T07:19:24.110Z,17.08
2022-08-31T07:22:00.309Z,17.07
2022-08-31T07:24:31.367Z,17.06
2022-08-31T07:27:02.899Z,17.07
2022-08-31T07:29:37.529Z,17.13
2022-08-31T07:32:04.124Z,17.13
2022-08-31T07:34:33.459Z,17.17
2022-08-31T07:37:19.649Z,17.22
2022-08-31T07:40:07.789Z,17.26
2022-08-31T07:42:43.617Z,17.33
2022-08-31T07:47:55.114Z,17.62
2022-08-31T07:50:23.453Z,17.77
2022-08-31T07:52:54.756Z,17.91
2022-08-31T07:55:24.630Z,17.99
2022-08-31T07:57:54.764Z,18.09
2022-08-31T08:00:26.450Z,18.06
2022-08-31T08:02:54.459Z,18.10
2022-08-31T08:05:27.480Z,18.15
2022-08-31T08:08:03.650Z,18.16
2022-08-31T08:10:31.649Z,18.25
2022-08-31T08:13:04.836Z,18.27
2022-08-31T08:15:35.444Z,18.27
2022-08-31T08:18:04.518Z,18.32
2022-08-31T08:20:37.410Z,18.42
2022-08-31T08:23:14.540Z,18.41
2022-08-31T08:25:43.671Z,18.39
2022-08-31T08:28:38.169Z,18.52
2022-08-31T08:31:07.087Z,18.56
2022-08-31T08:33:35.596Z,18.62
2022-08-31T08:36:07.627Z,18.64
2022-08-31T08:38:38.990Z,18.60
2022-08-31T08:41:12.978Z,18.64
2022-08-31T08:43:50.072Z,18.68
2022-08-31T08:46:35.650Z,18.75
2022-08-31T08:49:28.356Z,18.78
2022-08-31T08:52:11.666Z,18.86
2022-08-31T08:54:46.601Z,18.85
2022-08-31T08:57:20.904Z,18.90
2022-08-31T08:59:49.375Z,19.01
2022-08-31T09:02:23.146Z,19.05
2022-08-31T09:05:12.023Z,19.12
2022-08-31T09:07:50.906Z,19.24
2022-08-31T09:10:42.242Z,19.30
2022-08-31T09:13:30.139Z,19.31
2022-08-31T09:16:21.898Z,19.37
2022-08-31T09:19:08.394Z,19.46
2022-08-31T09:21:42.328Z,19.65
2022-08-31T09:24:21.593Z,19.79
2022-08-31T09:26:58.495Z,19.88
2022-08-31T09:29:31.264Z,19.86
2022-08-31T09:32:09.054Z,19.91
2022-08-31T09:34:41.229Z,19.99
2022-08-31T09:37:28.810Z,20.02
2022-08-31T09:39:56.423Z,20.10
2022-08-31T09:42:32.246Z,20.21
2022-08-31T09:45:15.626Z,20.36
2022-08-31T09:47:52.252Z,20.49
2022-08-31T09:50:31.461Z,20.48
2022-08-31T09:53:44.924Z,20.55
2022-08-31T09:56:19.762Z,20.56
2022-08-31T09:58:50.288Z,20.55
2022-08-31T10:01:37.874Z,20.63
2022-08-31T10:04:27.970Z,20.61
2022-08-31T10:07:29.952Z,20.66
2022-08-31T10:10:31.037Z,20.78
2022-08-31T10:13:22.867Z,20.85
2022-08-31T10:16:02.169Z,20.88
2022-08-31T10:18:55.969Z,20.84
2022-08-31T10:21:39.540Z,20.71
2022-08-31T10:24:33.293Z,20.67
2022-08-31T10:27:31.363Z,20.90
2022-08-31T10:30:05.620Z,21.06
2022-08-31T10:33:08.454Z,21.17
2022-08-31T10:35:54.952Z,21.20
2022-08-31T10:38:34.465Z,21.27
2022-08-31T10:41:16.250Z,21.37
2022-08-31T10:44:26.382Z,21.50
2022-08-31T10:47:02.584Z,21.49
2022-08-31T10:49:29.771Z,21.28
2022-08-31T10:52:17.168Z,21.47
2022-08-31T10:55:06.654Z,21.45
2022-08-31T10:57:56.266Z,21.41
2022-08-31T11:00:47.460Z,21.59
2022-08-31T11:03:48.960Z,21.59
2022-08-31T11:07:06.636Z,21.58
2022-08-31T11:09:54.940Z,21.72
2022-08-31T11:12:33.274Z,21.80
2022-08-31T11:15:44.120Z,21.80
2022-08-31T11:18:50.573Z,21.87
2022-08-31T11:22:14.106Z,21.97
2022-08-31T11:25:07.467Z,22.08
2022-08-31T11:27:55.143Z,22.08
2022-08-31T11:30:32.662Z,22.01
2022-08-31T11:33:06.866Z,22.11
2022-08-31T11:36:06.057Z,22.02
2022-08-31T11:38:54.710Z,21.80
2022-08-31T11:41:47.708Z,21.69
2022-08-31T11:44:33.281Z,21.60
2022-08-31T11:47:29.215Z,21.34
2022-08-31T11:50:02.310Z,21.39
2022-08-31T11:52:40.962Z,21.52
2022-08-31T11:55:28.587Z,21.52
2022-08-31T11:58:07.523Z,21.51
2022-08-31T12:00:58.817Z,21.59
2022-08-31T12:04:03.179Z,21.73
2022-08-31T12:06:32.081Z,22.04
2022-08-31T12:09:36.638Z,21.93
2022-08-31T12:12:32.371Z,22.04
2022-08-31T12:15:37.718Z,22.10
2022-08-31T12:18:38.447Z,22.29
2022-08-31T12:21:59.537Z,22.23
2022-08-31T12:25:02.226Z,22.26
2022-08-31T12:27:40.660Z,22.42
2022-08-31T12:30:36.598Z,22.40
2022-08-31T12:33:17.957Z,22.24
2022-08-31T12:35:49.220Z,22.19
2022-08-31T12:38:23.211Z,22.31
2022-08-31T12:40:57.870Z,22.35
2022-08-31T12:43:39.606Z,22.52
2022-08-31T12:46:33.439Z,22.65
2022-08-31T12:49:51.410Z,22.71
2022-08-31T12:52:39.424Z,22.76
2022-08-31T12:55:12.602Z,22.88
2022-08-31T12:57:50.645Z,23.01
2022-08-31T13:00:38.728Z,23.07
2022-08-31T13:03:28.956Z,23.13
2022-08-31T13:06:13.518Z,23.17
2022-08-31T13:08:50.255Z,23.14
2022-08-31T13:11:41.443Z,23.02
2022-08-31T13:14:13.024Z,23.02
2022-08-31T13:16:50.074Z,22.95
2022-08-31T13:19:30.226Z,22.90
2022-08-31T13:22:06.683Z,22.85
2022-08-31T13:24:41.283Z,22.77
2022-08-31T13:27:20.927Z,22.77
2022-08-31T13:29:50.884Z,22.75
2022-08-31T13:32:32.197Z,22.69
2022-08-31T13:35:13.993Z,22.64
2022-08-31T13:38:05.481Z,22.61
2022-08-31T13:40:39.901Z,22.57
2022-08-31T13:43:10.582Z,22.71
2022-08-31T13:45:58.090Z,22.92
2022-08-31T13:48:40.558Z,22.89
2022-08-31T13:51:18.273Z,22.90
2022-08-31T13:54:07.807Z,23.08
2022-08-31T13:56:55.460Z,23.29
2022-08-31T13:59:24.782Z,23.39
2022-08-31T14:01:57.776Z,23.47
2022-08-31T14:05:00.259Z,23.63
2022-08-31T14:07:39.367Z,23.52
2022-08-31T14:10:28.283Z,23.23
2022-08-31T14:13:27.711Z,23.08
2022-08-31T14:16:02.016Z,23.03
2022-08-31T14:18:43.053Z,22.98
2022-08-31T14:21:21.148Z,22.96
2022-08-31T14:23:54.403Z,22.90
2022-08-31T14:26:26.236Z,22.84
2022-08-31T14:28:56.742Z,22.71
2022-08-31T14:31:49.132Z,22.53
2022-08-31T14:34:24.412Z,22.52
2022-08-31T14:36:57.712Z,22.46
2022-08-31T14:39:30.757Z,22.51
2022-08-31T14:42:16.974Z,22.58
2022-08-31T14:44:53.506Z,22.63
2022-08-31T14:47:27.634Z,22.71
2022-08-31T14:50:01.524Z,22.83
2022-08-31T14:52:28.356Z,22.88
2022-08-31T14:55:00.448Z,22.88
2022-08-31T14:57:27.435Z,22.97
2022-08-31T14:59:59.584Z,23.20
2022-08-31T15:02:31.560Z,23.30
2022-08-31T15:05:06.490Z,23.29
2022-08-31T15:07:37.616Z,23.24
2022-08-31T15:10:07.610Z,23.12
2022-08-31T15:12:35.331Z,23.06
2022-08-31T15:15:02.146Z,22.98
2022-08-31T15:17:33.696Z,22.81
2022-08-31T15:20:03.336Z,22.67
2022-08-31T15:22:31.823Z,22.60
2022-08-31T15:24:59.009Z,22.59
2022-08-31T15:27:28.600Z,22.61
2022-08-31T15:30:02.408Z,22.64
2022-08-31T15:32:28.976Z,22.72
2022-08-31T15:34:58.625Z,22.76
2022-08-31T15:37:30.777Z,22.84
2022-08-31T15:40:02.073Z,22.92
2022-08-31T15:42:31.314Z,22.94
2022-08-31T15:44:58.124Z,23.14
2022-08-31T15:47:47.886Z,23.21
2022-08-31T15:50:19.105Z,23.20
2022-08-31T15:52:50.988Z,23.22
2022-08-31T15:55:26.260Z,23.25
2022-08-31T15:57:58.807Z,23.13
2022-08-31T16:00:36.645Z,23.13
2022-08-31T16:03:03.820Z,23.05
2022-08-31T16:05:35.477Z,22.95
2022-08-31T16:08:02.620Z,22.95
2022-08-31T16:10:30.946Z,22.97
2022-08-31T16:12:58.020Z,22.92
2022-08-31T16:15:25.225Z,22.91
2022-08-31T16:17:57.042Z,22.84
2022-08-31T16:20:23.547Z,22.77
2022-08-31T16:22:50.066Z,22.75
2022-08-31T16:25:17.559Z,22.77
2022-08-31T16:27:47.155Z,22.71
2022-08-31T16:30:15.856Z,22.73
2022-08-31T16:32:42.517Z,22.72
2022-08-31T16:35:09.764Z,22.72
2022-08-31T16:37:36.449Z,22.72
2022-08-31T16:40:04.318Z,22.72
2022-08-31T16:42:30.882Z,22.68
2022-08-31T16:45:01.807Z,22.60
2022-08-31T16:47:29.110Z,22.56
2022-08-31T16:49:55.826Z,22.52
2022-08-31T16:52:27.080Z,22.38
2022-08-31T16:54:57.039Z,22.27
2022-08-31T16:57:28.880Z,22.17
2022-08-31T16:59:57.327Z,22.17
2022-08-31T17:02:25.138Z,22.12
2022-08-31T17:04:54.295Z,22.05
2022-08-31T17:07:24.509Z,21.99
2022-08-31T17:09:56.429Z,21.94
2022-08-31T17:12:27.159Z,21.85
2022-08-31T17:14:53.964Z,21.71
2022-08-31T17:17:25.175Z,21.61
2022-08-31T17:19:55.776Z,21.53
2022-08-31T17:22:31.685Z,21.45
2022-08-31T17:25:04.568Z,21.32
2022-08-31T17:27:34.590Z,21.17
2022-08-31T17:30:05.638Z,21.08
2022-08-31T17:32:32.549Z,21.04
2022-08-31T17:34:59.837Z,20.93
2022-08-31T17:37:32.640Z,20.84
2022-08-31T17:40:00.222Z,20.70
2022-08-31T17:42:27.915Z,20.62
2022-08-31T17:44:56.678Z,20.49
2022-08-31T17:47:25.907Z,20.33
2022-08-31T17:49:52.941Z,20.18
2022-08-31T17:52:21.340Z,20.10
2022-08-31T17:54:50.407Z,20.01
2022-08-31T17:57:24.805Z,19.90
2022-08-31T17:59:52.861Z,19.79
2022-08-31T18:02:34.398Z,19.71
2022-08-31T18:05:02.323Z,19.70
2022-08-31T18:07:29.218Z,19.63
2022-08-31T18:09:56.576Z,19.57
2022-08-31T18:12:25.379Z,19.52
2022-08-31T18:14:58.057Z,19.48
2022-08-31T18:17:26.393Z,19.38
2022-08-31T18:19:54.566Z,19.34
2022-08-31T18:22:21.580Z,19.28
2022-08-31T18:24:48.144Z,19.27
2022-08-31T18:27:15.346Z,19.23
2022-08-31T18:29:44.033Z,19.16
2022-08-31T18:32:11.375Z,19.06
2022-08-31T18:34:46.899Z,18.94
2022-08-31T18:37:15.717Z,18.81
2022-08-31T18:40:04.185Z,18.74
2022-08-31T18:42:51.673Z,18.68
2022-08-31T18:45:19.384Z,18.60
2022-08-31T18:48:20.777Z,18.55
2022-08-31T18:50:44.091Z,18.46
2022-08-31T18:53:15.130Z,18.39
2022-08-31T18:55:45.672Z,18.31
2022-08-31T18:58:12.636Z,18.28
2022-08-31T19:00:40.152Z,18.22
2022-08-31T19:03:07.254Z,18.16
2022-08-31T19:05:39.890Z,18.12
2022-08-31T19:08:06.875Z,18.07
2022-08-31T19:10:34.695Z,17.95
2022-08-31T19:13:05.407Z,17.75
2022-08-31T19:15:39.803Z,17.58
2022-08-31T19:18:07.383Z,17.45
2022-08-31T19:20:35.412Z,17.35
2022-08-31T19:23:02.323Z,17.32
2022-08-31T19:25:29.155Z,17.27
2022-08-31T19:27:55.992Z,17.17
2022-08-31T19:30:27.887Z,17.11
2022-08-31T19:32:56.218Z,17.00
2022-08-31T19:35:25.821Z,16.94
2022-08-31T19:37:53.622Z,16.93
2022-08-31T19:40:20.279Z,16.92
2022-08-31T19:43:42.913Z,16.86
2022-08-31T19:45:43.595Z,16.76
2022-08-31T19:48:12.131Z,16.72
2022-08-31T19:50:41.970Z,16.72
2022-08-31T19:53:11.622Z,16.77
2022-08-31T19:55:50.011Z,16.84
2022-08-31T19:58:22.398Z,16.78
2022-08-31T20:00:49.827Z,16.75
2022-08-31T20:03:19.094Z,16.77
2022-08-31T20:05:46.766Z,16.76
2022-08-31T20:08:13.319Z,16.70
2022-08-31T20:10:45.944Z,16.75
2022-08-31T20:13:13.208Z,16.80
2022-08-31T20:15:45.008Z,16.79
2022-08-31T20:18:12.461Z,16.82
2022-08-31T20:20:45.848Z,16.81
2022-08-31T20:23:16.259Z,16.90
2022-08-31T20:25:45.583Z,16.88
2022-08-31T20:28:13.834Z,16.74
2022-08-31T20:30:43.273Z,16.65
2022-08-31T20:33:11.695Z,16.68
2022-08-31T20:35:47.192Z,16.67
2022-08-31T20:38:18.350Z,16.59
2022-08-31T20:40:48.134Z,16.59
2022-08-31T20:43:15.060Z,16.46
2022-08-31T20:45:42.368Z,16.32
2022-08-31T20:48:28.984Z,16.27
2022-08-31T20:50:57.234Z,16.12
2022-08-31T20:53:42.491Z,16.17
2022-08-31T20:56:17.505Z,16.10
2022-08-31T20:58:46.441Z,16.17
2022-08-31T21:01:14.051Z,16.23
2022-08-31T21:03:41.449Z,16.32
2022-08-31T21:06:11.493Z,16.34
2022-08-31T21:08:40.820Z,16.39
2022-08-31T21:11:17.697Z,16.42
2022-08-31T21:13:46.448Z,16.54
2022-08-31T21:16:14.976Z,16.57
2022-08-31T21:18:41.725Z,16.61
2022-08-31T21:21:17.399Z,16.66
2022-08-31T21:23:46.800Z,16.66
2022-08-31T21:26:26.576Z,16.65
2022-08-31T21:28:56.613Z,16.65
2022-08-31T21:31:28.978Z,16.64
2022-08-31T21:34:00.549Z,16.55
2022-08-31T21:36:29.651Z,16.46
2022-08-31T21:38:59.607Z,16.35
2022-08-31T21:41:28.732Z,16.32
2022-08-31T21:43:57.571Z,16.33
2022-08-31T21:46:28.821Z,16.30
2022-08-31T21:48:59.019Z,16.27
2022-08-31T21:51:37.293Z,16.25
2022-08-31T21:54:08.920Z,16.30
2022-08-31T21:56:44.050Z,16.30
2022-08-31T21:59:14.008Z,16.30
2022-08-31T22:01:41.648Z,16.23
2022-08-31T22:04:10.169Z,16.15
2022-08-31T22:06:38.148Z,16.01
2022-08-31T22:09:15.716Z,15.94
2022-08-31T22:11:46.470Z,15.92
2022-08-31T22:14:17.679Z,15.82
2022-08-31T22:16:46.774Z,15.72
2022-08-31T22:19:18.412Z,15.55
2022-08-31T22:21:49.351Z,15.46
2022-08-31T22:24:27.365Z,15.40
2022-08-31T22:26:57.879Z,15.31
2022-08-31T22:29:29.090Z,15.29
2022-08-31T22:32:01.643Z,15.20
2022-08-31T22:34:28.938Z,15.12
2022-08-31T22:36:56.572Z,15.12
2022-08-31T22:39:29.672Z,15.08
2022-08-31T22:41:58.780Z,15.12
2022-08-31T22:44:32.261Z,15.00
2022-08-31T22:46:59.116Z,14.90
2022-08-31T22:49:26.982Z,14.82
2022-08-31T22:51:54.711Z,14.82
2022-08-31T22:54:23.367Z,14.75
2022-08-31T22:56:52.003Z,14.69
2022-08-31T22:59:27.250Z,14.48
2022-08-31T23:02:03.201Z,14.30
2022-08-31T23:04:34.205Z,14.15
2022-08-31T23:07:03.466Z,14.07
2022-08-31T23:09:31.072Z,14.14
2022-08-31T23:12:00.899Z,14.22
2022-08-31T23:14:29.251Z,14.23
2022-08-31T23:16:59.731Z,14.18
2022-08-31T23:19:54.155Z,14.04
2022-08-31T23:22:24.450Z,13.97
2022-08-31T23:24:51.709Z,13.90
2022-08-31T23:27:21.624Z,13.78
2022-08-31T23:29:56.434Z,13.70
2022-08-31T23:32:27.741Z,13.64
2022-08-31T23:34:57.256Z,13.55
2022-08-31T23:37:26.237Z,13.49
2022-08-31T23:39:54.629Z,13.44
2022-08-31T23:42:24.395Z,13.49
2022-08-31T23:44:52.151Z,13.50
2022-08-31T23:47:26.591Z,13.53
2022-08-31T23:49:53.627Z,13.56
2022-08-31T23:52:27.490Z,13.58
2022-08-31T23:54:59.216Z,13.54
2022-08-31T23:57:32.164Z,13.53
